createdAt,value
2023-05-14T00:01:46.502Z,11.78
2023-05-14T00:04:14.597Z,11.84
2023-05-14T00:06:42.603Z,11.79
2023-05-14T00:09:10.573Z,11.73
2023-05-14T00:11:40.144Z,11.75
2023-05-14T00:14:08.218Z,11.76
2023-05-14T00:16:36.233Z,11.73
2023-05-14T00:19:04.293Z,11.63
2023-05-14T00:21:32.659Z,11.64
2023-05-14T00:24:00.670Z,11.65
2023-05-14T00:26:28.641Z,11.64
2023-05-14T00:28:58.074Z,11.56
2023-05-14T00:31:26.157Z,11.49
2023-05-14T00:33:54.217Z,11.43
2023-05-14T00:36:22.278Z,11.42
2023-05-14T00:38:50.414Z,11.28
2023-05-14T00:41:18.429Z,11.21
2023-05-14T00:43:46.390Z,11.06
2023-05-14T00:46:16.514Z,10.98
2023-05-14T00:48:45.671Z,10.98
2023-05-14T00:51:13.813Z,10.97
2023-05-14T00:53:42.614Z,10.85
2023-05-14T00:56:10.902Z,10.76
2023-05-14T00:58:38.916Z,10.70
2023-05-14T01:01:06.922Z,10.54
2023-05-14T01:03:37.005Z,10.47
2023-05-14T01:06:13.027Z,10.33
2023-05-14T01:08:51.067Z,10.23
2023-05-14T01:11:23.684Z,10.23
2023-05-14T01:13:59.066Z,10.23
2023-05-14T01:16:28.927Z,10.19
2023-05-14T01:19:01.010Z,10.24
2023-05-14T01:21:38.604Z,10.23
2023-05-14T01:24:07.352Z,10.33
2023-05-14T01:26:35.991Z,10.32
2023-05-14T01:29:12.317Z,10.28
2023-05-14T01:31:43.250Z,10.33
2023-05-14T01:34:13.768Z,10.35
2023-05-14T01:36:43.995Z,10.30
2023-05-14T01:39:13.441Z,10.34
2023-05-14T01:41:42.876Z,10.29
2023-05-14T01:44:11.553Z,10.20
2023-05-14T01:46:39.802Z,10.26
2023-05-14T01:49:07.870Z,10.27
2023-05-14T01:51:35.899Z,10.31
2023-05-14T01:54:05.411Z,10.32
2023-05-14T01:56:33.428Z,10.25
2023-05-14T01:59:01.381Z,10.23
2023-05-14T02:01:29.502Z,10.20
2023-05-14T02:03:58.027Z,10.17
2023-05-14T02:06:26.132Z,10.15
2023-05-14T02:08:54.146Z,10.17
2023-05-14T02:11:23.423Z,10.16
2023-05-14T02:13:51.565Z,10.20
2023-05-14T02:16:20.267Z,10.26
2023-05-14T02:18:48.245Z,10.24
2023-05-14T02:21:16.475Z,10.24
2023-05-14T02:23:44.588Z,10.09
2023-05-14T02:26:12.820Z,9.98
2023-05-14T02:28:42.234Z,9.85
2023-05-14T02:31:10.401Z,9.76
2023-05-14T02:33:38.427Z,9.59
2023-05-14T02:36:08.921Z,9.61
2023-05-14T02:38:36.947Z,9.49
2023-05-14T02:41:04.984Z,9.52
2023-05-14T02:43:32.950Z,9.34
2023-05-14T02:46:02.290Z,9.30
2023-05-14T02:48:30.683Z,9.28
2023-05-14T02:50:58.664Z,9.30
2023-05-14T02:53:26.688Z,9.15
2023-05-14T02:55:54.723Z,9.26
2023-05-14T02:58:25.310Z,9.41
2023-05-14T03:00:56.682Z,9.51
2023-05-14T03:03:30.531Z,9.59
2023-05-14T03:05:59.324Z,9.77
2023-05-14T03:08:27.395Z,9.79
2023-05-14T03:10:55.378Z,9.67
2023-05-14T03:13:23.466Z,9.49
2023-05-14T03:15:54.823Z,9.19
2023-05-14T03:18:22.958Z,9.35
2023-05-14T03:20:52.323Z,9.39
2023-05-14T03:23:20.476Z,9.33
2023-05-14T03:25:48.442Z,9.15
2023-05-14T03:28:16.407Z,9.18
2023-05-14T03:30:44.513Z,9.33
2023-05-14T03:33:13.401Z,9.36
2023-05-14T03:35:41.385Z,9.37
2023-05-14T03:38:10.906Z,9.20
2023-05-14T03:40:38.895Z,9.12
2023-05-14T03:43:06.950Z,9.01
2023-05-14T03:45:35.051Z,8.88
2023-05-14T03:48:03.268Z,8.74
2023-05-14T03:50:31.281Z,8.69
2023-05-14T03:52:59.297Z,8.69
2023-05-14T03:55:28.687Z,8.73
2023-05-14T03:57:56.685Z,8.74
2023-05-14T04:00:25.019Z,8.77
2023-05-14T04:02:53.378Z,8.86
2023-05-14T04:05:21.744Z,8.86
2023-05-14T04:07:49.805Z,8.81
2023-05-14T04:10:17.795Z,8.88
2023-05-14T04:12:47.214Z,8.97
2023-05-14T04:15:15.166Z,9.00
2023-05-14T04:17:43.253Z,9.01
2023-05-14T04:20:11.837Z,9.03
2023-05-14T04:22:39.802Z,9.09
2023-05-14T04:25:08.532Z,9.16
2023-05-14T04:27:36.501Z,9.24
2023-05-14T04:30:08.427Z,9.29
2023-05-14T04:32:36.580Z,9.42
2023-05-14T04:35:05.319Z,9.52
2023-05-14T04:37:33.357Z,9.71
2023-05-14T04:40:01.456Z,9.75
2023-05-14T04:42:29.462Z,9.91
2023-05-14T04:44:57.947Z,10.07
2023-05-14T04:47:27.617Z,10.21
2023-05-14T04:49:55.642Z,10.28
2023-05-14T04:52:23.612Z,10.46
2023-05-14T04:54:51.645Z,10.50
2023-05-14T04:57:19.592Z,10.57
2023-05-14T04:59:47.857Z,10.60
2023-05-14T05:02:15.859Z,10.70
2023-05-14T05:04:45.293Z,10.78
2023-05-14T05:07:14.282Z,10.90
2023-05-14T05:09:42.232Z,11.00
2023-05-14T05:12:10.894Z,11.07
2023-05-14T05:14:38.883Z,11.16
2023-05-14T05:17:06.876Z,11.23
2023-05-14T05:19:43.195Z,11.33
2023-05-14T05:22:13.862Z,11.43
2023-05-14T05:24:42.014Z,11.51
2023-05-14T05:27:09.990Z,11.62
2023-05-14T05:29:38.455Z,11.65
2023-05-14T05:32:07.838Z,11.73
2023-05-14T05:34:36.165Z,11.79
2023-05-14T05:37:05.964Z,11.89
2023-05-14T05:39:35.703Z,11.97
2023-05-14T05:42:04.055Z,12.03
2023-05-14T05:44:32.094Z,12.02
2023-05-14T05:47:00.152Z,12.19
2023-05-14T05:49:28.199Z,12.27
2023-05-14T05:51:56.171Z,12.38
2023-05-14T05:54:24.705Z,12.47
2023-05-14T05:56:54.192Z,12.54
2023-05-14T05:59:22.264Z,12.66
2023-05-14T06:01:50.375Z,12.77
2023-05-14T06:04:18.417Z,12.84
2023-05-14T06:06:46.394Z,12.93
2023-05-14T06:09:14.396Z,13.07
2023-05-14T06:11:42.407Z,13.19
2023-05-14T06:14:11.725Z,13.20
2023-05-14T06:16:39.829Z,13.25
2023-05-14T06:19:08.476Z,13.31
2023-05-14T06:21:36.693Z,13.39
2023-05-14T06:24:05.079Z,13.45
2023-05-14T06:26:33.066Z,13.53
2023-05-14T06:29:01.074Z,13.61
2023-05-14T06:31:30.524Z,13.71
2023-05-14T06:33:58.661Z,13.79
2023-05-14T06:36:26.686Z,13.88
2023-05-14T06:38:56.915Z,13.92
2023-05-14T06:41:24.964Z,14.00
2023-05-14T06:43:52.981Z,14.12
2023-05-14T06:46:20.992Z,14.18
2023-05-14T06:48:50.523Z,14.24
2023-05-14T06:51:18.737Z,14.32
2023-05-14T06:53:46.841Z,14.38
2023-05-14T06:56:14.898Z,14.46
2023-05-14T06:58:42.996Z,14.56
2023-05-14T07:01:11.102Z,14.64
2023-05-14T07:03:39.094Z,14.76
2023-05-14T07:06:08.732Z,14.84
2023-05-14T07:08:37.129Z,14.91
2023-05-14T07:11:05.220Z,14.95
2023-05-14T07:13:33.346Z,14.99
2023-05-14T07:16:01.305Z,15.10
2023-05-14T07:18:29.337Z,15.20
2023-05-14T07:20:57.358Z,15.28
2023-05-14T07:23:26.704Z,15.37
2023-05-14T07:25:54.828Z,15.44
2023-05-14T07:28:22.797Z,15.57
2023-05-14T07:30:50.745Z,15.69
2023-05-14T07:33:18.740Z,15.79
2023-05-14T07:35:46.799Z,15.94
2023-05-14T07:38:15.255Z,16.06
2023-05-14T07:40:44.684Z,16.17
2023-05-14T07:43:12.842Z,16.19
2023-05-14T07:45:40.937Z,16.26
2023-05-14T07:48:09.112Z,16.36
2023-05-14T07:50:38.188Z,16.48
2023-05-14T07:53:06.176Z,16.59
2023-05-14T07:55:34.193Z,16.66
2023-05-14T07:58:03.597Z,16.80
2023-05-14T08:00:31.669Z,16.96
2023-05-14T08:02:59.839Z,17.12
2023-05-14T08:05:28.030Z,17.28
2023-05-14T08:07:56.019Z,17.36
2023-05-14T08:10:24.329Z,17.42
2023-05-14T08:12:52.538Z,17.38
2023-05-14T08:15:21.942Z,17.35
2023-05-14T08:17:50.059Z,17.40
2023-05-14T08:20:18.719Z,17.43
2023-05-14T08:22:46.726Z,17.48
2023-05-14T08:25:14.840Z,17.49
2023-05-14T08:27:42.762Z,17.54
2023-05-14T08:30:11.495Z,17.54
2023-05-14T08:32:41.027Z,17.53
2023-05-14T08:35:09.861Z,17.50
2023-05-14T08:37:37.891Z,17.61
2023-05-14T08:40:08.036Z,17.69
2023-05-14T08:42:36.383Z,17.85
2023-05-14T08:45:06.765Z,18.01
2023-05-14T08:47:35.182Z,18.13
2023-05-14T08:50:07.456Z,18.17
2023-05-14T08:52:36.119Z,18.23
2023-05-14T08:55:06.222Z,18.33
2023-05-14T08:57:34.885Z,18.45
2023-05-14T09:00:06.742Z,18.55
2023-05-14T09:02:35.995Z,18.58
2023-05-14T09:05:07.379Z,18.56
2023-05-14T09:07:35.690Z,18.55
2023-05-14T09:10:04.474Z,18.56
2023-05-14T09:12:32.499Z,18.63
2023-05-14T09:15:00.485Z,18.63
2023-05-14T09:17:28.939Z,18.67
2023-05-14T09:19:57.211Z,18.65
2023-05-14T09:22:30.133Z,18.53
2023-05-14T09:25:09.620Z,18.52
2023-05-14T09:27:37.950Z,18.77
2023-05-14T09:30:11.067Z,18.80
2023-05-14T09:32:40.617Z,19.06
2023-05-14T09:35:17.604Z,19.11
2023-05-14T09:37:48.741Z,19.17
2023-05-14T09:40:18.500Z,19.21
2023-05-14T09:42:48.106Z,19.34
2023-05-14T09:45:16.831Z,19.47
2023-05-14T09:47:45.353Z,19.60
2023-05-14T09:50:13.791Z,19.77
2023-05-14T09:52:41.946Z,19.86
2023-05-14T09:55:11.647Z,19.87
2023-05-14T09:57:39.738Z,19.65
2023-05-14T10:00:10.187Z,19.48
2023-05-14T10:02:41.170Z,19.74
2023-05-14T10:05:10.351Z,19.88
2023-05-14T10:07:43.583Z,19.99
2023-05-14T10:10:16.884Z,20.26
2023-05-14T10:12:52.748Z,20.40
2023-05-14T10:15:24.969Z,20.28
2023-05-14T10:17:57.740Z,20.12
2023-05-14T10:20:27.639Z,20.42
2023-05-14T10:22:55.707Z,20.52
2023-05-14T10:25:25.780Z,20.69
2023-05-14T10:27:54.575Z,20.68
2023-05-14T10:30:24.018Z,20.80
2023-05-14T10:33:07.575Z,20.57
2023-05-14T10:35:56.539Z,20.80
2023-05-14T10:38:27.156Z,20.97
2023-05-14T10:41:01.975Z,20.96
2023-05-14T10:43:31.391Z,20.90
2023-05-14T10:46:01.420Z,20.95
2023-05-14T10:48:29.923Z,20.82
2023-05-14T10:50:58.894Z,20.67
2023-05-14T10:53:37.829Z,20.65
2023-05-14T10:56:08.858Z,20.48
2023-05-14T10:58:38.750Z,20.46
2023-05-14T11:01:08.213Z,20.67
2023-05-14T11:03:41.775Z,20.72
2023-05-14T11:06:11.073Z,20.94
2023-05-14T11:08:39.812Z,21.24
2023-05-14T11:11:10.475Z,21.20
2023-05-14T11:13:38.612Z,21.02
2023-05-14T11:18:39.021Z,20.77
2023-05-14T11:21:07.146Z,20.87
2023-05-14T11:23:35.182Z,20.76
2023-05-14T11:26:03.430Z,20.82
2023-05-14T11:28:33.066Z,20.58
2023-05-14T11:31:01.139Z,20.41
2023-05-14T11:33:30.467Z,20.35
2023-05-14T11:35:58.522Z,20.23
2023-05-14T11:38:26.461Z,20.37
2023-05-14T11:40:55.325Z,20.36
2023-05-14T11:43:23.854Z,20.45
2023-05-14T11:45:54.660Z,20.35
2023-05-14T11:48:23.041Z,20.35
2023-05-14T11:50:52.351Z,20.42
2023-05-14T11:53:21.026Z,20.66
2023-05-14T11:55:49.376Z,20.78
2023-05-14T11:58:18.967Z,20.65
2023-05-14T12:00:47.566Z,20.73
2023-05-14T12:03:17.438Z,20.34
2023-05-14T12:05:56.453Z,20.47
2023-05-14T12:08:28.075Z,20.45
2023-05-14T12:10:56.966Z,20.49
2023-05-14T12:13:27.438Z,20.42
2023-05-14T12:15:57.099Z,20.74
2023-05-14T12:18:29.065Z,20.79
2023-05-14T12:20:57.286Z,20.84
2023-05-14T12:23:28.224Z,21.09
2023-05-14T12:25:56.768Z,21.30
2023-05-14T12:28:24.795Z,21.08
2023-05-14T12:30:58.030Z,21.04
2023-05-14T12:33:28.558Z,21.21
2023-05-14T12:36:07.360Z,21.88
2023-05-14T12:38:48.291Z,22.08
2023-05-14T12:41:16.399Z,21.77
2023-05-14T12:43:45.349Z,21.56
2023-05-14T12:46:13.382Z,21.45
2023-05-14T12:48:42.739Z,21.39
2023-05-14T12:51:10.756Z,21.62
2023-05-14T12:53:38.953Z,21.13
2023-05-14T12:56:07.675Z,20.89
2023-05-14T12:58:35.702Z,20.67
2023-05-14T13:01:04.410Z,20.27
2023-05-14T13:03:32.984Z,20.14
2023-05-14T13:06:02.384Z,20.29
2023-05-14T13:08:30.514Z,20.59
2023-05-14T13:10:58.617Z,20.74
2023-05-14T13:13:26.679Z,20.78
2023-05-14T13:15:55.573Z,21.22
2023-05-14T13:18:23.661Z,21.15
2023-05-14T13:20:51.833Z,21.32
2023-05-14T13:23:21.238Z,21.24
2023-05-14T13:25:50.119Z,21.35
2023-05-14T13:28:18.171Z,21.43
2023-05-14T13:31:05.058Z,21.29
2023-05-14T13:33:34.034Z,21.51
2023-05-14T13:36:02.044Z,22.22
2023-05-14T13:38:31.645Z,22.40
2023-05-14T13:41:02.510Z,22.42
2023-05-14T13:43:31.516Z,22.93
2023-05-14T13:45:59.523Z,23.14
2023-05-14T13:48:28.076Z,23.24
2023-05-14T13:50:56.227Z,23.27
2023-05-14T13:53:25.342Z,22.40
2023-05-14T13:55:56.581Z,22.65
2023-05-14T13:58:25.635Z,22.75
2023-05-14T14:00:54.180Z,22.65
2023-05-14T14:03:22.396Z,22.52
2023-05-14T14:05:51.619Z,22.84
2023-05-14T14:08:23.949Z,22.78
2023-05-14T14:10:55.402Z,22.60
2023-05-14T14:13:24.252Z,22.10
2023-05-14T14:15:52.361Z,22.30
2023-05-14T14:18:20.418Z,22.02
2023-05-14T14:20:48.528Z,21.92
2023-05-14T14:23:16.518Z,21.74
2023-05-14T14:25:44.664Z,21.58
2023-05-14T14:28:14.127Z,21.49
2023-05-14T14:30:42.330Z,21.26
2023-05-14T14:33:11.306Z,21.09
2023-05-14T14:35:39.321Z,20.87
2023-05-14T14:38:07.293Z,20.95
2023-05-14T14:40:35.529Z,20.90
2023-05-14T14:43:03.545Z,20.77
2023-05-14T14:45:32.950Z,20.54
2023-05-14T14:48:27.592Z,20.67
2023-05-14T14:50:56.121Z,20.76
2023-05-14T14:53:24.872Z,20.84
2023-05-14T14:55:53.126Z,20.73
2023-05-14T14:58:21.707Z,20.32
2023-05-14T15:00:53.044Z,20.20
2023-05-14T15:03:21.435Z,20.26
2023-05-14T15:05:49.787Z,20.21
2023-05-14T15:08:18.074Z,20.38
2023-05-14T15:10:46.439Z,20.40
2023-05-14T15:13:14.505Z,20.46
2023-05-14T15:15:42.894Z,20.54
2023-05-14T15:18:12.677Z,20.61
2023-05-14T15:20:40.974Z,20.57
2023-05-14T15:23:09.068Z,20.73
2023-05-14T15:25:37.159Z,20.82
2023-05-14T15:28:07.923Z,21.16
2023-05-14T15:30:36.128Z,22.20
2023-05-14T15:33:04.326Z,22.58
2023-05-14T15:35:33.679Z,23.75
2023-05-14T15:38:01.668Z,24.81
2023-05-14T15:40:29.677Z,26.24
2023-05-14T15:42:57.701Z,26.91
2023-05-14T15:45:25.980Z,27.30
2023-05-14T15:47:54.016Z,27.34
2023-05-14T15:50:22.623Z,27.93
2023-05-14T15:52:52.172Z,27.03
2023-05-14T15:55:20.614Z,26.52
2023-05-14T15:57:48.731Z,27.51
2023-05-14T16:00:17.624Z,27.01
2023-05-14T16:02:45.706Z,27.55
2023-05-14T16:05:14.888Z,26.22
2023-05-14T16:07:43.385Z,26.53
2023-05-14T16:10:13.031Z,27.98
2023-05-14T16:12:41.047Z,28.99
2023-05-14T16:15:09.925Z,28.36
2023-05-14T16:17:38.017Z,27.97
2023-05-14T16:20:06.832Z,27.79
2023-05-14T16:22:36.213Z,27.43
2023-05-14T16:25:05.862Z,27.29
2023-05-14T16:27:35.510Z,27.93
2023-05-14T16:30:04.456Z,26.58
2023-05-14T16:32:32.451Z,26.48
2023-05-14T16:35:02.424Z,26.37
2023-05-14T16:37:30.500Z,27.75
2023-05-14T16:39:58.546Z,27.59
2023-05-14T16:42:26.578Z,27.02
2023-05-14T16:44:55.903Z,26.21
2023-05-14T16:47:23.882Z,25.37
2023-05-14T16:49:51.830Z,24.88
2023-05-14T16:52:19.968Z,25.19
2023-05-14T16:54:48.020Z,24.96
2023-05-14T16:57:16.097Z,24.89
2023-05-14T16:59:44.040Z,24.70
2023-05-14T17:02:13.362Z,24.98
2023-05-14T17:04:42.338Z,24.20
2023-05-14T17:07:10.619Z,24.48
2023-05-14T17:09:38.726Z,23.84
2023-05-14T17:12:07.463Z,23.68
2023-05-14T17:14:35.456Z,22.89
2023-05-14T17:17:03.509Z,21.94
2023-05-14T17:19:32.926Z,22.11
2023-05-14T17:22:00.913Z,21.68
2023-05-14T17:24:28.883Z,21.45
2023-05-14T17:26:56.917Z,21.28
2023-05-14T17:29:24.890Z,21.25
2023-05-14T17:31:53.030Z,21.60
2023-05-14T17:34:21.168Z,21.31
2023-05-14T17:36:50.533Z,21.32
2023-05-14T17:39:18.515Z,21.56
2023-05-14T17:41:46.663Z,20.79
2023-05-14T17:44:14.685Z,20.79
2023-05-14T17:46:44.646Z,20.50
2023-05-14T17:49:12.851Z,20.42
2023-05-14T17:51:49.708Z,20.47
2023-05-14T17:54:19.073Z,20.55
2023-05-14T17:56:48.054Z,20.28
2023-05-14T17:59:16.053Z,20.16
2023-05-14T18:01:44.124Z,19.58
2023-05-14T18:04:12.236Z,19.77
2023-05-14T18:06:40.493Z,19.40
2023-05-14T18:09:08.507Z,19.17
2023-05-14T18:11:37.969Z,19.11
2023-05-14T18:14:05.976Z,18.77
2023-05-14T18:16:34.241Z,18.87
2023-05-14T18:19:02.329Z,18.59
2023-05-14T18:21:30.812Z,18.65
2023-05-14T18:23:58.792Z,18.57
2023-05-14T18:26:26.882Z,18.46
2023-05-14T18:28:56.334Z,18.20
2023-05-14T18:31:24.393Z,18.05
2023-05-14T18:33:54.079Z,17.93
2023-05-14T18:36:22.176Z,17.85
2023-05-14T18:38:50.221Z,17.73
2023-05-14T18:41:18.225Z,17.61
2023-05-14T18:43:46.292Z,17.45
2023-05-14T18:46:15.729Z,17.41
2023-05-14T18:48:43.765Z,17.23
2023-05-14T18:51:12.377Z,17.18
2023-05-14T18:53:40.448Z,17.16
2023-05-14T18:56:09.525Z,16.97
2023-05-14T18:58:37.564Z,16.91
2023-05-14T19:01:05.633Z,16.80
2023-05-14T19:03:35.078Z,16.74
2023-05-14T19:06:03.227Z,16.63
2023-05-14T19:08:31.225Z,16.63
2023-05-14T19:10:59.245Z,16.55
2023-05-14T19:13:28.667Z,16.52
2023-05-14T19:15:56.831Z,16.47
2023-05-14T19:18:24.918Z,16.39
2023-05-14T19:20:56.576Z,16.33
2023-05-14T19:23:24.604Z,16.27
2023-05-14T19:25:52.638Z,16.03
2023-05-14T19:28:21.283Z,16.03
2023-05-14T19:30:50.749Z,15.89
2023-05-14T19:33:18.765Z,15.83
2023-05-14T19:35:47.332Z,15.73
2023-05-14T19:38:16.755Z,15.65
2023-05-14T19:40:45.250Z,15.63
2023-05-14T19:43:13.601Z,15.50
2023-05-14T19:45:42.665Z,15.43
2023-05-14T19:48:12.430Z,15.41
2023-05-14T19:50:41.434Z,15.41
2023-05-14T19:53:09.486Z,15.32
2023-05-14T19:55:38.955Z,15.33
2023-05-14T19:58:07.003Z,15.22
2023-05-14T20:00:35.097Z,15.23
2023-05-14T20:03:03.225Z,15.17
2023-05-14T20:05:31.975Z,15.14
2023-05-14T20:07:59.956Z,15.09
2023-05-14T20:10:28.207Z,15.07
2023-05-14T20:12:57.731Z,15.04
2023-05-14T20:15:25.738Z,15.01
2023-05-14T20:17:53.829Z,15.00
2023-05-14T20:20:22.160Z,14.92
2023-05-14T20:22:50.249Z,14.86
2023-05-14T20:25:18.340Z,14.84
2023-05-14T20:27:46.376Z,14.83
2023-05-14T20:30:16.130Z,14.84
2023-05-14T20:32:44.150Z,14.80
2023-05-14T20:35:12.471Z,14.82
2023-05-14T20:37:40.543Z,14.81
2023-05-14T20:40:12.548Z,14.78
2023-05-14T20:42:40.728Z,14.73
2023-05-14T20:45:09.956Z,14.80
2023-05-14T20:47:39.407Z,14.73
2023-05-14T20:50:08.534Z,14.75
2023-05-14T20:52:36.546Z,14.77
2023-05-14T20:55:05.070Z,14.71
2023-05-14T20:57:33.070Z,14.72
2023-05-14T21:00:01.113Z,14.71
2023-05-14T21:02:29.314Z,14.68
2023-05-14T21:04:58.839Z,14.55
2023-05-14T21:07:28.745Z,14.55
2023-05-14T21:09:57.017Z,14.53
2023-05-14T21:12:25.010Z,14.50
2023-05-14T21:14:53.034Z,14.43
2023-05-14T21:17:21.096Z,14.40
2023-05-14T21:19:49.177Z,14.33
2023-05-14T21:22:18.547Z,14.22
2023-05-14T21:24:46.543Z,14.22
2023-05-14T21:27:14.567Z,14.19
2023-05-14T21:29:44.769Z,14.18
2023-05-14T21:32:13.165Z,14.10
2023-05-14T21:34:41.150Z,14.07
2023-05-14T21:37:09.142Z,14.14
2023-05-14T21:39:38.530Z,14.19
2023-05-14T21:42:07.160Z,14.22
2023-05-14T21:44:35.139Z,14.27
2023-05-14T21:47:03.170Z,14.17
2023-05-14T21:49:31.169Z,14.09
2023-05-14T21:51:59.161Z,13.97
2023-05-14T21:54:27.186Z,13.89
2023-05-14T21:56:56.611Z,13.80
2023-05-14T21:59:24.634Z,13.72
2023-05-14T22:02:06.325Z,13.76
2023-05-14T22:04:35.669Z,13.81
2023-05-14T22:07:04.400Z,13.79
2023-05-14T22:09:32.352Z,13.75
2023-05-14T22:12:01.723Z,13.65
2023-05-14T22:14:29.776Z,13.66
2023-05-14T22:16:57.846Z,13.73
2023-05-14T22:19:26.786Z,13.64
2023-05-14T22:21:55.180Z,13.54
2023-05-14T22:24:23.204Z,13.52
2023-05-14T22:26:51.682Z,13.48
2023-05-14T22:29:21.222Z,13.49
2023-05-14T22:31:49.203Z,13.35
2023-05-14T22:34:17.276Z,13.33
2023-05-14T22:36:45.322Z,13.24
2023-05-14T22:39:13.634Z,13.20
2023-05-14T22:41:41.705Z,13.17
2023-05-14T22:44:09.753Z,13.13
2023-05-14T22:46:39.278Z,13.10
2023-05-14T22:49:07.310Z,13.02
2023-05-14T22:51:35.322Z,12.98
2023-05-14T22:54:03.280Z,12.95
2023-05-14T22:56:31.330Z,12.87
2023-05-14T22:59:00.311Z,12.84
2023-05-14T23:01:28.591Z,12.76
2023-05-14T23:03:58.097Z,12.69
2023-05-14T23:06:26.357Z,12.65
2023-05-14T23:08:54.321Z,12.60
2023-05-14T23:11:22.549Z,12.55
2023-05-14T23:13:50.571Z,12.57
2023-05-14T23:16:18.976Z,12.51
2023-05-14T23:18:47.302Z,12.37
2023-05-14T23:21:16.744Z,12.30
2023-05-14T23:23:45.409Z,12.27
2023-05-14T23:26:13.576Z,12.27
2023-05-14T23:28:41.642Z,12.30
2023-05-14T23:31:09.654Z,12.22
2023-05-14T23:33:39.727Z,12.08
2023-05-14T23:36:09.046Z,12.06
2023-05-14T23:38:38.629Z,11.88
2023-05-14T23:41:06.609Z,11.87
2023-05-14T23:43:34.650Z,11.85
2023-05-14T23:46:03.131Z,11.93
2023-05-14T23:48:31.444Z,11.96
2023-05-14T23:50:59.477Z,11.94
2023-05-14T23:53:27.546Z,11.91
2023-05-14T23:55:56.993Z,11.82
2023-05-14T23:58:25.068Z,11.63
